createdAt,value
2023-01-13T00:01:39.891Z,40.54
2023-01-13T00:04:06.791Z,40.28
2023-01-13T00:06:33.626Z,40.12
2023-01-13T00:09:00.533Z,40.53
2023-01-13T00:11:27.784Z,40.46
2023-01-13T00:13:54.688Z,40.44
2023-01-13T00:16:21.812Z,40.15
2023-01-13T00:18:48.907Z,40.24
2023-01-13T00:21:17.423Z,40.22
2023-01-13T00:23:44.478Z,40.32
2023-01-13T00:26:16.179Z,40.66
2023-01-13T00:28:43.060Z,40.63
2023-01-13T00:31:11.880Z,40.60
2023-01-13T00:33:38.993Z,40.43
2023-01-13T00:36:06.645Z,40.65
2023-01-13T00:38:34.311Z,40.61
2023-01-13T00:41:12.141Z,40.62
2023-01-13T00:43:39.029Z,40.56
2023-01-13T00:46:06.956Z,40.20
2023-01-13T00:48:33.980Z,40.42
2023-01-13T00:51:02.983Z,40.41
2023-01-13T00:53:31.057Z,40.57
2023-01-13T00:56:38.629Z,40.39
2023-01-13T00:59:06.400Z,40.50
2023-01-13T01:01:33.562Z,40.32
2023-01-13T01:04:00.484Z,40.53
2023-01-13T01:06:27.607Z,40.60
2023-01-13T01:08:54.764Z,40.64
2023-01-13T01:11:23.649Z,40.43
2023-01-13T01:13:52.516Z,40.60
2023-01-13T01:16:20.931Z,40.37
2023-01-13T01:18:48.383Z,40.76
2023-01-13T01:21:15.352Z,40.34
2023-01-13T01:23:42.362Z,40.42
2023-01-13T01:26:13.308Z,40.35
2023-01-13T01:28:40.317Z,40.89
2023-01-13T01:31:08.389Z,40.61
2023-01-13T01:33:35.349Z,40.85
2023-01-13T01:36:03.025Z,40.58
2023-01-13T01:38:30.063Z,40.44
2023-01-13T01:40:56.977Z,40.60
2023-01-13T01:43:42.627Z,40.73
2023-01-13T01:46:09.580Z,40.71
2023-01-13T01:48:40.824Z,40.45
2023-01-13T01:51:09.563Z,40.91
2023-01-13T01:53:36.446Z,40.71
2023-01-13T01:56:03.335Z,40.83
2023-01-13T01:58:36.032Z,41.02
2023-01-13T02:01:03.023Z,40.62
2023-01-13T02:03:29.946Z,40.69
2023-01-13T02:05:56.866Z,40.65
2023-01-13T02:08:23.716Z,40.73
2023-01-13T02:10:53.316Z,40.82
2023-01-13T02:13:20.241Z,40.79
2023-01-13T02:15:56.177Z,40.79
2023-01-13T02:18:35.972Z,40.73
2023-01-13T02:21:21.256Z,40.87
2023-01-13T02:24:09.755Z,40.93
2023-01-13T02:26:45.275Z,40.63
2023-01-13T02:29:58.999Z,40.77
2023-01-13T02:32:33.337Z,40.60
2023-01-13T02:35:27.661Z,40.61
2023-01-13T02:37:54.571Z,40.53
2023-01-13T02:40:34.951Z,40.77
2023-01-13T02:43:27.061Z,40.70
2023-01-13T02:45:57.630Z,41.07
2023-01-13T02:48:24.600Z,40.75
2023-01-13T02:50:55.787Z,40.76
2023-01-13T02:53:43.532Z,40.72
2023-01-13T02:56:10.481Z,40.60
2023-01-13T02:58:37.698Z,40.58
2023-01-13T03:01:04.779Z,40.77
2023-01-13T03:03:32.014Z,40.77
2023-01-13T03:06:17.165Z,40.77
2023-01-13T03:08:47.727Z,40.72
2023-01-13T03:11:16.454Z,40.79
2023-01-13T03:13:49.164Z,40.47
2023-01-13T03:16:40.239Z,39.95
2023-01-13T03:19:12.970Z,39.89
2023-01-13T03:21:55.457Z,39.76
2023-01-13T03:24:51.859Z,39.48
2023-01-13T03:27:37.513Z,39.43
2023-01-13T03:30:09.297Z,39.40
2023-01-13T03:32:39.003Z,39.30
2023-01-13T03:35:20.754Z,39.06
2023-01-13T03:37:51.159Z,39.00
2023-01-13T03:40:21.087Z,38.67
2023-01-13T03:43:10.655Z,38.39
2023-01-13T03:45:37.728Z,38.40
2023-01-13T03:48:07.465Z,38.47
2023-01-13T03:50:37.586Z,38.11
2023-01-13T03:53:10.832Z,38.04
2023-01-13T03:55:44.328Z,37.81
2023-01-13T03:58:20.249Z,37.64
2023-01-13T04:01:01.428Z,37.59
2023-01-13T04:03:36.579Z,37.27
2023-01-13T04:06:42.163Z,37.40
2023-01-13T04:09:26.492Z,37.22
2023-01-13T04:12:01.012Z,37.08
2023-01-13T04:14:28.004Z,36.87
2023-01-13T04:16:55.366Z,37.00
2023-01-13T04:19:22.268Z,37.16
2023-01-13T04:21:49.217Z,36.79
2023-01-13T04:24:16.070Z,36.66
2023-01-13T04:26:42.966Z,36.34
2023-01-13T04:29:09.917Z,36.32
2023-01-13T04:31:38.208Z,36.29
2023-01-13T04:34:05.229Z,35.95
2023-01-13T04:36:32.178Z,35.91
2023-01-13T04:38:59.203Z,35.89
2023-01-13T04:41:26.219Z,36.05
2023-01-13T04:43:53.159Z,35.67
2023-01-13T04:46:20.260Z,35.78
2023-01-13T04:48:47.505Z,35.74
2023-01-13T04:51:14.551Z,35.56
2023-01-13T04:53:41.636Z,35.33
2023-01-13T04:56:08.995Z,35.44
2023-01-13T04:58:36.004Z,35.83
2023-01-13T05:01:03.044Z,35.70
2023-01-13T05:03:30.126Z,35.74
2023-01-13T05:05:57.170Z,35.79
2023-01-13T05:08:24.257Z,35.56
2023-01-13T05:10:51.250Z,35.54
2023-01-13T05:13:36.929Z,35.49
2023-01-13T05:16:22.937Z,35.73
2023-01-13T05:18:50.035Z,35.67
2023-01-13T05:21:35.566Z,35.68
2023-01-13T05:24:21.132Z,35.61
2023-01-13T05:26:48.246Z,35.77
2023-01-13T05:29:15.324Z,35.66
2023-01-13T05:31:42.248Z,35.64
2023-01-13T05:34:09.384Z,35.65
2023-01-13T05:36:36.520Z,35.38
2023-01-13T05:39:05.390Z,35.12
2023-01-13T05:41:51.376Z,35.25
2023-01-13T05:44:18.445Z,35.42
2023-01-13T05:46:45.484Z,35.30
2023-01-13T05:49:12.543Z,35.22
2023-01-13T05:51:39.624Z,35.30
2023-01-13T05:54:06.676Z,35.15
2023-01-13T05:56:34.352Z,35.13
2023-01-13T05:59:01.464Z,35.13
2023-01-13T06:01:28.492Z,34.88
2023-01-13T06:03:55.596Z,34.96
2023-01-13T06:06:22.734Z,34.95
2023-01-13T06:08:49.851Z,34.50
2023-01-13T06:11:16.990Z,34.35
2023-01-13T06:13:43.939Z,34.16
2023-01-13T06:16:10.958Z,33.95
2023-01-13T06:18:38.099Z,33.69
2023-01-13T06:21:05.393Z,33.74
2023-01-13T06:23:35.107Z,33.44
2023-01-13T06:26:34.827Z,33.36
2023-01-13T06:29:01.860Z,33.15
2023-01-13T06:31:28.940Z,33.07
2023-01-13T06:33:58.718Z,33.05
2023-01-13T06:36:28.196Z,33.12
2023-01-13T06:38:56.683Z,32.78
2023-01-13T06:41:43.817Z,32.84
2023-01-13T06:44:10.888Z,32.41
2023-01-13T06:46:38.020Z,31.52
2023-01-13T06:49:05.264Z,31.78
2023-01-13T06:51:32.175Z,31.80
2023-01-13T06:53:59.347Z,32.08
2023-01-13T06:56:26.509Z,31.91
2023-01-13T06:58:53.804Z,31.61
2023-01-13T07:01:21.011Z,31.37
2023-01-13T07:03:48.165Z,31.46
2023-01-13T07:06:15.227Z,31.83
2023-01-13T07:08:42.203Z,31.66
2023-01-13T07:11:09.380Z,31.47
2023-01-13T07:13:54.894Z,31.51
2023-01-13T07:16:24.320Z,31.66
2023-01-13T07:18:51.340Z,31.44
2023-01-13T07:21:20.016Z,31.55
2023-01-13T07:23:47.552Z,31.19
2023-01-13T07:26:14.733Z,31.36
2023-01-13T07:28:41.768Z,31.10
2023-01-13T07:31:17.020Z,30.83
2023-01-13T07:33:43.948Z,31.18
2023-01-13T07:36:11.039Z,31.23
2023-01-13T07:38:39.954Z,31.32
2023-01-13T07:41:25.803Z,31.31
2023-01-13T07:43:52.764Z,30.74
2023-01-13T07:46:19.688Z,30.78
2023-01-13T07:48:46.881Z,30.18
2023-01-13T07:51:13.880Z,30.34
2023-01-13T07:53:40.818Z,30.27
2023-01-13T07:56:08.162Z,30.23
2023-01-13T07:58:35.840Z,30.46
2023-01-13T08:01:10.418Z,30.24
2023-01-13T08:03:37.355Z,30.25
2023-01-13T08:06:05.084Z,30.38
2023-01-13T08:08:34.801Z,30.17
2023-01-13T08:11:02.528Z,30.25
2023-01-13T08:13:29.574Z,30.10
2023-01-13T08:16:00.832Z,30.13
2023-01-13T08:18:27.817Z,30.19
2023-01-13T08:20:54.958Z,30.00
2023-01-13T08:23:22.567Z,30.20
2023-01-13T08:25:49.822Z,30.02
2023-01-13T08:28:17.063Z,30.30
2023-01-13T08:30:44.277Z,30.35
2023-01-13T08:33:11.970Z,30.01
2023-01-13T08:35:39.807Z,30.30
2023-01-13T08:38:06.830Z,30.24
2023-01-13T08:40:33.883Z,30.11
2023-01-13T08:43:01.045Z,30.24
2023-01-13T08:45:28.023Z,30.58
2023-01-13T08:47:55.021Z,30.31
2023-01-13T08:50:21.936Z,30.25
2023-01-13T08:52:48.845Z,30.48
2023-01-13T08:55:15.927Z,30.42
2023-01-13T08:57:42.883Z,29.97
2023-01-13T09:00:10.404Z,30.43
2023-01-13T09:02:38.694Z,29.95
2023-01-13T09:05:07.467Z,29.93
2023-01-13T09:07:35.475Z,29.94
2023-01-13T09:10:02.700Z,29.70
2023-01-13T09:12:48.543Z,29.83
2023-01-13T09:15:18.514Z,29.84
2023-01-13T09:17:45.652Z,29.51
2023-01-13T09:20:13.053Z,29.73
2023-01-13T09:22:40.809Z,29.73
2023-01-13T09:25:08.206Z,29.43
2023-01-13T09:27:35.173Z,28.77
2023-01-13T09:30:02.240Z,28.77
2023-01-13T09:32:29.161Z,28.54
2023-01-13T09:35:01.967Z,28.49
2023-01-13T09:37:34.331Z,28.66
2023-01-13T09:40:02.249Z,27.78
2023-01-13T09:43:13.921Z,28.38
2023-01-13T09:45:45.346Z,28.25
2023-01-13T09:48:32.410Z,28.04
2023-01-13T09:51:20.991Z,27.98
2023-01-13T09:53:51.533Z,28.08
2023-01-13T09:56:18.489Z,27.91
2023-01-13T09:58:45.396Z,27.93
2023-01-13T10:01:15.480Z,27.95
2023-01-13T10:03:42.620Z,27.98
2023-01-13T10:06:22.522Z,27.80
2023-01-13T10:08:49.516Z,27.63
2023-01-13T10:11:39.439Z,27.86
2023-01-13T10:14:46.659Z,27.81
2023-01-13T10:17:33.838Z,26.80
2023-01-13T10:20:16.123Z,27.68
2023-01-13T10:23:04.359Z,27.71
2023-01-13T10:25:57.382Z,28.12
2023-01-13T10:28:25.509Z,27.92
2023-01-13T10:30:52.540Z,28.04
2023-01-13T10:33:27.714Z,26.66
2023-01-13T10:36:14.516Z,26.95
2023-01-13T10:38:42.461Z,27.75
2023-01-13T10:41:15.467Z,27.83
2023-01-13T10:43:43.246Z,28.02
2023-01-13T10:46:12.275Z,27.87
2023-01-13T10:48:43.292Z,28.03
2023-01-13T10:51:52.834Z,27.83
2023-01-13T10:54:22.429Z,27.82
2023-01-13T10:56:49.584Z,28.64
2023-01-13T10:59:16.477Z,28.46
2023-01-13T11:01:54.813Z,28.20
2023-01-13T11:04:28.020Z,28.05
2023-01-13T11:06:55.043Z,28.32
2023-01-13T11:09:25.252Z,27.69
2023-01-13T11:11:55.961Z,27.86
2023-01-13T11:14:37.104Z,27.26
2023-01-13T11:17:10.944Z,27.52
2023-01-13T11:19:43.855Z,27.75
2023-01-13T11:22:20.592Z,27.45
2023-01-13T11:24:54.359Z,27.43
2023-01-13T11:27:46.140Z,27.32
2023-01-13T11:30:44.153Z,27.52
2023-01-13T11:33:17.156Z,27.45
2023-01-13T11:35:55.576Z,27.12
2023-01-13T11:38:31.450Z,27.47
2023-01-13T11:41:03.094Z,26.38
2023-01-13T11:43:33.879Z,27.04
2023-01-13T11:46:01.040Z,26.00
2023-01-13T11:48:29.847Z,27.29
2023-01-13T11:51:05.543Z,27.50
2023-01-13T11:53:54.225Z,27.54
2023-01-13T11:56:52.504Z,27.32
2023-01-13T11:59:47.043Z,27.47
2023-01-13T12:02:36.828Z,27.37
2023-01-13T12:05:03.721Z,27.20
2023-01-13T12:07:43.468Z,27.24
2023-01-13T12:10:31.543Z,25.75
2023-01-13T12:13:26.832Z,25.56
2023-01-13T12:16:23.671Z,25.60
2023-01-13T12:19:15.587Z,26.34
2023-01-13T12:22:01.713Z,26.90
2023-01-13T12:24:52.029Z,26.94
2023-01-13T12:27:19.301Z,27.18
2023-01-13T12:29:47.075Z,27.56
2023-01-13T12:32:15.604Z,27.62
2023-01-13T12:35:17.855Z,26.35
2023-01-13T12:37:56.914Z,26.80
2023-01-13T12:40:41.983Z,26.86
2023-01-13T12:43:35.020Z,27.18
2023-01-13T12:46:23.269Z,27.64
2023-01-13T12:48:59.586Z,27.24
2023-01-13T12:51:37.637Z,28.01
2023-01-13T12:54:39.660Z,28.02
2023-01-13T12:57:25.562Z,27.85
2023-01-13T13:00:13.121Z,27.82
2023-01-13T13:02:44.070Z,28.17
2023-01-13T13:05:14.178Z,27.94
2023-01-13T13:07:49.686Z,27.66
2023-01-13T13:10:36.018Z,27.88
2023-01-13T13:13:20.736Z,28.43
2023-01-13T13:15:48.367Z,28.11
2023-01-13T13:18:18.808Z,28.07
2023-01-13T13:20:55.091Z,28.17
2023-01-13T13:23:27.728Z,28.03
2023-01-13T13:26:25.120Z,27.97
2023-01-13T13:29:20.376Z,27.75
2023-01-13T13:31:47.313Z,28.80
2023-01-13T13:34:32.996Z,29.13
2023-01-13T13:36:59.927Z,28.92
2023-01-13T13:39:46.865Z,28.73
2023-01-13T13:43:00.873Z,28.54
2023-01-13T13:45:47.961Z,28.24
2023-01-13T13:48:27.809Z,28.08
2023-01-13T13:50:58.888Z,27.82
2023-01-13T13:53:36.294Z,28.27
2023-01-13T13:56:04.059Z,27.91
2023-01-13T13:58:33.654Z,28.13
2023-01-13T14:01:00.665Z,27.92
2023-01-13T14:03:39.751Z,28.12
2023-01-13T14:06:07.497Z,28.12
2023-01-13T14:08:35.964Z,27.79
2023-01-13T14:11:21.610Z,27.92
2023-01-13T14:13:48.520Z,28.02
2023-01-13T14:16:15.345Z,28.16
2023-01-13T14:18:45.743Z,28.17
2023-01-13T14:21:19.440Z,28.10
2023-01-13T14:23:55.227Z,28.45
2023-01-13T14:26:29.697Z,28.61
2023-01-13T14:28:56.829Z,28.61
2023-01-13T14:31:23.876Z,28.84
2023-01-13T14:33:54.859Z,28.78
2023-01-13T14:36:23.095Z,28.66
2023-01-13T14:39:05.298Z,28.79
2023-01-13T14:41:32.221Z,28.91
2023-01-13T14:44:00.235Z,29.02
2023-01-13T14:46:43.216Z,28.81
2023-01-13T14:49:40.445Z,28.93
2023-01-13T14:52:14.335Z,29.15
2023-01-13T14:54:41.119Z,29.21
2023-01-13T14:57:31.441Z,29.28
2023-01-13T15:00:13.691Z,29.31
2023-01-13T15:02:48.396Z,29.51
2023-01-13T15:05:24.487Z,29.22
2023-01-13T15:08:05.440Z,29.60
2023-01-13T15:10:33.064Z,29.72
2023-01-13T15:13:01.575Z,29.79
2023-01-13T15:15:33.136Z,29.76
2023-01-13T15:18:00.840Z,29.78
2023-01-13T15:20:27.795Z,29.95
2023-01-13T15:22:55.426Z,29.86
2023-01-13T15:25:22.381Z,30.24
2023-01-13T15:27:50.982Z,30.05
2023-01-13T15:30:18.923Z,30.19
2023-01-13T15:32:45.943Z,30.26
2023-01-13T15:35:14.272Z,30.37
2023-01-13T15:37:41.720Z,30.62
2023-01-13T15:40:16.957Z,30.46
2023-01-13T15:43:02.748Z,30.57
2023-01-13T15:45:48.678Z,30.79
2023-01-13T15:48:15.639Z,30.91
2023-01-13T15:50:42.552Z,31.37
2023-01-13T15:53:13.686Z,31.29
2023-01-13T15:55:42.577Z,31.23
2023-01-13T15:58:13.076Z,31.25
2023-01-13T16:00:40.499Z,31.42
2023-01-13T16:03:12.986Z,31.60
2023-01-13T16:05:40.565Z,31.47
2023-01-13T16:08:17.724Z,31.59
2023-01-13T16:10:45.032Z,31.78
2023-01-13T16:13:12.771Z,31.68
2023-01-13T16:15:45.459Z,31.77
2023-01-13T16:18:24.319Z,31.78
2023-01-13T16:20:53.510Z,31.99
2023-01-13T16:23:20.419Z,32.14
2023-01-13T16:25:47.671Z,32.37
2023-01-13T16:28:26.171Z,32.33
2023-01-13T16:30:53.051Z,32.26
2023-01-13T16:33:19.942Z,32.19
2023-01-13T16:36:12.132Z,32.07
2023-01-13T16:38:33.795Z,31.96
2023-01-13T16:41:00.731Z,32.46
2023-01-13T16:43:27.852Z,32.35
2023-01-13T16:45:54.820Z,32.33
2023-01-13T16:48:22.798Z,32.62
2023-01-13T16:50:49.725Z,32.73
2023-01-13T16:53:16.700Z,32.94
2023-01-13T16:55:43.610Z,32.74
2023-01-13T16:58:16.673Z,33.11
2023-01-13T17:00:46.800Z,32.82
2023-01-13T17:03:17.208Z,32.89
2023-01-13T17:05:44.833Z,33.27
2023-01-13T17:08:15.503Z,33.44
2023-01-13T17:10:42.383Z,33.21
2023-01-13T17:13:15.982Z,33.17
2023-01-13T17:15:43.636Z,33.01
2023-01-13T17:18:11.528Z,33.40
2023-01-13T17:20:38.380Z,33.19
2023-01-13T17:23:05.300Z,33.39
2023-01-13T17:25:32.150Z,33.35
2023-01-13T17:27:58.987Z,33.51
2023-01-13T17:30:25.954Z,33.66
2023-01-13T17:32:52.795Z,33.56
2023-01-13T17:35:24.580Z,33.52
2023-01-13T17:37:52.568Z,33.88
2023-01-13T17:40:19.526Z,33.93
2023-01-13T17:42:46.374Z,33.67
2023-01-13T17:45:13.337Z,33.81
2023-01-13T17:47:40.154Z,34.09
2023-01-13T17:50:07.164Z,33.87
2023-01-13T17:52:34.400Z,34.26
2023-01-13T17:55:01.259Z,33.95
2023-01-13T17:57:28.123Z,34.13
2023-01-13T17:59:55.033Z,34.17
2023-01-13T18:02:21.945Z,34.53
2023-01-13T18:04:48.864Z,34.27
2023-01-13T18:07:15.723Z,34.37
2023-01-13T18:09:42.735Z,34.51
2023-01-13T18:12:10.578Z,34.53
2023-01-13T18:14:37.461Z,35.01
2023-01-13T18:17:04.588Z,34.91
2023-01-13T18:19:50.352Z,34.78
2023-01-13T18:22:35.646Z,35.10
2023-01-13T18:25:22.064Z,35.02
2023-01-13T18:27:49.113Z,35.27
2023-01-13T18:30:16.096Z,35.24
2023-01-13T18:32:43.073Z,35.35
2023-01-13T18:35:10.542Z,35.23
2023-01-13T18:37:39.935Z,35.39
2023-01-13T18:40:07.704Z,35.71
2023-01-13T18:42:54.511Z,35.66
2023-01-13T18:45:29.158Z,36.03
2023-01-13T18:47:57.577Z,35.96
2023-01-13T18:50:24.422Z,35.94
2023-01-13T18:52:51.527Z,36.05
2023-01-13T18:55:18.527Z,35.88
2023-01-13T18:57:45.401Z,35.80
2023-01-13T19:00:14.550Z,36.17
2023-01-13T19:02:41.412Z,36.09
2023-01-13T19:05:09.086Z,36.05
2023-01-13T19:07:36.402Z,35.95
2023-01-13T19:10:04.558Z,36.21
2023-01-13T19:12:31.501Z,36.07
2023-01-13T19:14:58.569Z,36.39
2023-01-13T19:17:26.662Z,36.40
2023-01-13T19:19:55.140Z,36.23
2023-01-13T19:22:23.677Z,36.42
2023-01-13T19:24:50.838Z,36.25
2023-01-13T19:27:18.459Z,36.50
2023-01-13T19:29:52.219Z,36.30
2023-01-13T19:32:22.725Z,36.52
2023-01-13T19:34:50.998Z,36.60
2023-01-13T19:37:18.322Z,36.73
2023-01-13T19:39:45.159Z,36.55
2023-01-13T19:42:30.689Z,36.76
2023-01-13T19:45:16.451Z,37.06
2023-01-13T19:47:45.447Z,37.22
2023-01-13T19:50:12.680Z,37.04
2023-01-13T19:52:39.644Z,36.99
2023-01-13T19:55:06.963Z,37.05
2023-01-13T19:57:33.889Z,37.28
2023-01-13T20:00:00.727Z,37.28
2023-01-13T20:02:28.337Z,37.36
2023-01-13T20:04:56.127Z,37.77
2023-01-13T20:07:24.478Z,37.74
2023-01-13T20:09:52.321Z,37.77
2023-01-13T20:12:22.692Z,37.73
2023-01-13T20:14:50.004Z,37.78
2023-01-13T20:17:18.357Z,37.88
2023-01-13T20:19:45.255Z,37.89
2023-01-13T20:22:12.220Z,37.57
2023-01-13T20:24:39.105Z,37.72
2023-01-13T20:27:06.029Z,38.03
2023-01-13T20:29:33.051Z,37.80
2023-01-13T20:31:59.942Z,38.20
2023-01-13T20:34:26.821Z,37.75
2023-01-13T20:36:53.716Z,38.07
2023-01-13T20:39:22.291Z,37.99
2023-01-13T20:42:07.617Z,38.02
2023-01-13T20:44:34.552Z,38.43
2023-01-13T20:47:02.748Z,37.99
2023-01-13T20:49:31.243Z,38.33
2023-01-13T20:51:58.235Z,38.58
2023-01-13T20:54:25.180Z,38.46
2023-01-13T20:56:52.195Z,38.57
2023-01-13T20:59:19.133Z,38.72
2023-01-13T21:01:46.012Z,38.62
2023-01-13T21:04:12.922Z,38.78
2023-01-13T21:06:41.610Z,38.63
2023-01-13T21:09:08.975Z,38.32
2023-01-13T21:11:54.766Z,38.92
2023-01-13T21:14:43.846Z,38.54
2023-01-13T21:17:30.363Z,38.39
2023-01-13T21:19:57.261Z,38.55
2023-01-13T21:22:24.358Z,39.01
2023-01-13T21:24:51.324Z,38.66
2023-01-13T21:27:18.319Z,38.86
2023-01-13T21:29:46.285Z,39.07
2023-01-13T21:32:13.194Z,38.88
2023-01-13T21:34:40.030Z,38.73
2023-01-13T21:37:06.913Z,38.86
2023-01-13T21:39:33.847Z,39.14
2023-01-13T21:42:19.204Z,39.22
2023-01-13T21:45:04.806Z,39.02
2023-01-13T21:47:49.759Z,39.42
2023-01-13T21:50:21.701Z,39.35
2023-01-13T21:52:50.406Z,39.32
2023-01-13T21:55:17.336Z,39.20
2023-01-13T21:57:48.003Z,39.42
2023-01-13T22:00:15.952Z,39.50
2023-01-13T22:02:43.121Z,39.25
2023-01-13T22:05:10.877Z,39.63
2023-01-13T22:07:38.161Z,39.70
2023-01-13T22:10:06.266Z,39.71
2023-01-13T22:12:33.134Z,39.54
2023-01-13T22:15:00.114Z,39.63
2023-01-13T22:17:27.456Z,39.91
2023-01-13T22:19:54.933Z,39.76
2023-01-13T22:22:22.099Z,39.75
2023-01-13T22:24:49.933Z,39.62
2023-01-13T22:27:24.157Z,40.11
2023-01-13T22:29:51.535Z,40.04
2023-01-13T22:32:18.768Z,40.54
2023-01-13T22:34:45.738Z,40.63
2023-01-13T22:37:12.581Z,40.59
2023-01-13T22:39:39.523Z,40.34
2023-01-13T22:42:06.501Z,40.45
2023-01-13T22:44:33.623Z,40.32
2023-01-13T22:47:00.455Z,40.46
2023-01-13T22:49:27.353Z,40.60
2023-01-13T22:51:54.347Z,40.72
2023-01-13T22:54:21.282Z,40.61
2023-01-13T22:56:48.147Z,40.66
2023-01-13T22:59:16.019Z,40.89
2023-01-13T23:01:43.162Z,40.94
2023-01-13T23:04:11.878Z,40.65
2023-01-13T23:06:38.787Z,40.81
2023-01-13T23:09:05.781Z,40.73
2023-01-13T23:11:32.771Z,41.19
2023-01-13T23:14:01.284Z,41.12
2023-01-13T23:16:28.757Z,40.93
2023-01-13T23:18:55.692Z,40.95
2023-01-13T23:21:24.397Z,40.91
2023-01-13T23:23:51.233Z,41.57
2023-01-13T23:26:18.256Z,41.14
2023-01-13T23:28:45.218Z,41.43
2023-01-13T23:31:13.854Z,41.51
2023-01-13T23:33:44.054Z,41.37
2023-01-13T23:36:16.183Z,41.78
2023-01-13T23:38:43.135Z,41.33
2023-01-13T23:41:11.287Z,41.87
2023-01-13T23:43:38.120Z,41.66
2023-01-13T23:46:10.967Z,41.62
2023-01-13T23:48:37.915Z,41.72
2023-01-13T23:51:07.109Z,41.83
2023-01-13T23:53:39.945Z,41.75
2023-01-13T23:56:08.870Z,42.09
2023-01-13T23:58:35.851Z,42.01
